createdAt,value
2018-07-20T00:03:34.575Z,100663.14
2018-07-20T00:06:03.349Z,100665.31
2018-07-20T00:08:32.804Z,100660.59
2018-07-20T00:11:04.713Z,100662.23
2018-07-20T00:13:33.856Z,100663.41
2018-07-20T00:16:03.119Z,100664.53
2018-07-20T00:18:31.724Z,100661.13
2018-07-20T00:21:00.346Z,100657.24
2018-07-20T00:26:16.583Z,100661.30
2018-07-20T00:28:45.261Z,100654.17
2018-07-20T00:31:13.909Z,100655.38
2018-07-20T00:33:42.549Z,100653.25
2018-07-20T00:36:11.206Z,100652.48
2018-07-20T00:38:39.835Z,100649.63
2018-07-20T00:41:08.498Z,100650.84
2018-07-20T00:43:37.128Z,100653.32
2018-07-20T00:46:13.328Z,100648.84
2018-07-20T00:48:41.945Z,100646.59
2018-07-20T00:51:11.164Z,100643.07
2018-07-20T00:53:45.359Z,100641.61
2018-07-20T00:56:14.934Z,100639.66
2018-07-20T00:58:44.102Z,100631.86
2018-07-20T01:01:13.715Z,100636.42
2018-07-20T01:03:42.706Z,100634.72
2018-07-20T01:06:11.787Z,100635.26
2018-07-20T01:08:40.557Z,100631.86
2018-07-20T01:11:09.462Z,100634.07
2018-07-20T01:13:38.089Z,100629.73
2018-07-20T01:16:06.758Z,100625.53
2018-07-20T01:18:35.378Z,100630.63
2018-07-20T01:21:04.032Z,100618.25
2018-07-20T01:23:32.655Z,100627.01
2018-07-20T01:26:01.826Z,100623.97
2018-07-20T01:28:30.764Z,100624.68
2018-07-20T01:31:02.358Z,100621.34
2018-07-20T01:33:31.335Z,100618.98
2018-07-20T01:35:59.996Z,100618.77
2018-07-20T01:38:28.826Z,100616.83
2018-07-20T01:40:57.594Z,100617.80
2018-07-20T01:43:26.229Z,100613.70
2018-07-20T01:45:55.464Z,100612.31
2018-07-20T01:48:24.039Z,100623.34
2018-07-20T01:50:53.477Z,100622.67
2018-07-20T01:53:22.184Z,100622.91
2018-07-20T01:55:52.274Z,100618.23
2018-07-20T01:58:24.586Z,100613.39
2018-07-20T02:00:53.284Z,100617.34
2018-07-20T02:03:22.302Z,100615.21
2018-07-20T02:05:51.142Z,100611.63
2018-07-20T02:08:20.852Z,100611.73
2018-07-20T02:10:50.714Z,100614.13
2018-07-20T02:13:19.476Z,100610.73
2018-07-20T02:15:48.110Z,100611.91
2018-07-20T02:18:16.783Z,100611.67
2018-07-20T02:20:45.958Z,100610.67
2018-07-20T02:23:16.208Z,100611.86
2018-07-20T02:25:44.855Z,100612.74
2018-07-20T02:28:14.052Z,100616.89
2018-07-20T02:30:42.991Z,100617.70
2018-07-20T02:33:11.664Z,100615.82
2018-07-20T02:35:40.966Z,100615.48
2018-07-20T02:38:09.636Z,100617.09
2018-07-20T02:40:38.275Z,100616.47
2018-07-20T02:43:06.932Z,100612.23
2018-07-20T02:45:35.575Z,100612.56
2018-07-20T02:48:04.938Z,100614.01
2018-07-20T02:50:33.942Z,100611.84
2018-07-20T02:53:02.946Z,100608.27
2018-07-20T02:55:31.598Z,100610.28
2018-07-20T02:58:00.248Z,100608.53
2018-07-20T03:00:29.230Z,100610.45
2018-07-20T03:02:58.530Z,100601.27
2018-07-20T03:05:27.571Z,100606.56
2018-07-20T03:07:56.301Z,100605.16
2018-07-20T03:10:25.272Z,100608.73
2018-07-20T03:12:54.578Z,100608.97
2018-07-20T03:15:38.539Z,100613.02
2018-07-20T03:18:07.527Z,100605.93
2018-07-20T03:20:38.609Z,100596.13
2018-07-20T03:23:08.080Z,100602.23
2018-07-20T03:25:36.705Z,100599.58
2018-07-20T03:28:05.981Z,100594.91
2018-07-20T03:30:35.491Z,100584.72
2018-07-20T03:33:09.396Z,100593.27
2018-07-20T03:35:42.955Z,100593.63
2018-07-20T03:38:11.545Z,100592.78
2018-07-20T03:40:40.392Z,100593.75
2018-07-20T03:45:56.949Z,100588.46
2018-07-20T03:48:25.628Z,100594.33
2018-07-20T03:50:54.261Z,100595.27
2018-07-20T03:53:22.924Z,100597.36
2018-07-20T03:55:51.562Z,100595.50
2018-07-20T03:58:20.222Z,100589.08
2018-07-20T04:00:48.850Z,100590.55
2018-07-20T04:03:17.514Z,100590.55
2018-07-20T04:05:46.142Z,100591.08
2018-07-20T04:08:15.038Z,100589.87
2018-07-20T04:10:43.841Z,100584.16
2018-07-20T04:13:12.656Z,100586.45
2018-07-20T04:15:41.506Z,100590.82
2018-07-20T04:18:10.125Z,100590.24
2018-07-20T04:23:28.898Z,100584.58
2018-07-20T04:25:58.135Z,100581.48
2018-07-20T04:28:26.980Z,100586.43
2018-07-20T04:30:56.201Z,100580.16
2018-07-20T04:33:24.918Z,100583.74
2018-07-20T04:35:53.597Z,100585.37
2018-07-20T04:38:22.241Z,100583.27
2018-07-20T04:40:51.365Z,100589.04
2018-07-20T04:43:21.296Z,100591.20
2018-07-20T04:45:50.352Z,100598.20
2018-07-20T04:48:19.506Z,100587.69
2018-07-20T04:50:50.023Z,100591.53
2018-07-20T04:53:20.066Z,100589.20
2018-07-20T04:55:49.055Z,100594.00
2018-07-20T04:58:17.719Z,100591.19
2018-07-20T05:00:46.544Z,100586.06
2018-07-20T05:03:15.448Z,100590.59
2018-07-20T05:05:44.366Z,100595.19
2018-07-20T05:08:13.167Z,100589.06
2018-07-20T05:10:41.883Z,100584.12
2018-07-20T05:13:12.040Z,100583.98
2018-07-20T05:15:40.885Z,100578.70
2018-07-20T05:18:10.007Z,100576.11
2018-07-20T05:20:38.660Z,100574.53
2018-07-20T05:23:07.394Z,100572.72
2018-07-20T05:25:36.198Z,100573.50
2018-07-20T05:28:05.036Z,100570.20
2018-07-20T05:30:33.691Z,100575.73
2018-07-20T05:33:02.686Z,100569.77
2018-07-20T05:35:31.641Z,100572.74
2018-07-20T05:38:00.360Z,100567.80
2018-07-20T05:40:29.152Z,100565.36
2018-07-20T05:42:57.981Z,100562.50
2018-07-20T05:45:26.639Z,100565.12
2018-07-20T05:47:55.490Z,100559.22
2018-07-20T05:50:32.085Z,100562.23
2018-07-20T05:53:00.855Z,100570.94
2018-07-20T05:55:29.499Z,100567.52
2018-07-20T05:57:58.305Z,100571.10
2018-07-20T06:00:27.503Z,100568.00
2018-07-20T06:02:56.511Z,100574.03
2018-07-20T06:05:25.319Z,100572.37
2018-07-20T06:07:54.011Z,100568.78
2018-07-20T06:10:23.144Z,100573.36
2018-07-20T06:12:52.324Z,100573.09
2018-07-20T06:15:27.119Z,100570.42
2018-07-20T06:17:56.050Z,100573.20
2018-07-20T06:20:25.932Z,100576.20
2018-07-20T06:22:54.708Z,100573.56
2018-07-20T06:25:23.411Z,100567.09
2018-07-20T06:27:52.120Z,100562.16
2018-07-20T06:30:20.844Z,100561.45
2018-07-20T06:32:49.731Z,100559.59
2018-07-20T06:35:18.724Z,100561.95
2018-07-20T06:37:47.620Z,100561.49
2018-07-20T06:40:16.647Z,100555.63
2018-07-20T06:42:47.280Z,100554.30
2018-07-20T06:45:16.735Z,100559.27
2018-07-20T06:47:46.250Z,100564.61
2018-07-20T06:50:15.616Z,100557.84
2018-07-20T06:52:44.701Z,100559.88
2018-07-20T06:55:13.519Z,100560.78
2018-07-20T06:57:42.329Z,100563.89
2018-07-20T07:00:11.645Z,100560.84
2018-07-20T07:02:40.824Z,100565.41
2018-07-20T07:05:09.842Z,100561.92
2018-07-20T07:07:39.419Z,100560.31
2018-07-20T07:10:08.396Z,100562.33
2018-07-20T07:12:38.107Z,100564.05
2018-07-20T07:15:07.230Z,100559.14
2018-07-20T07:17:36.011Z,100558.33
2018-07-20T07:20:05.289Z,100556.98
2018-07-20T07:22:34.599Z,100560.41
2018-07-20T07:25:04.104Z,100559.20
2018-07-20T07:27:34.256Z,100563.50
2018-07-20T07:30:02.943Z,100561.14
2018-07-20T07:32:31.837Z,100557.83
2018-07-20T07:35:00.528Z,100559.59
2018-07-20T07:37:30.070Z,100560.16
2018-07-20T07:39:59.859Z,100555.95
2018-07-20T07:42:28.783Z,100561.57
2018-07-20T07:44:59.072Z,100554.62
2018-07-20T07:47:31.723Z,100556.97
2018-07-20T07:50:02.618Z,100558.16
2018-07-20T07:52:31.540Z,100557.89
2018-07-20T07:55:01.749Z,100554.60
2018-07-20T07:57:31.852Z,100556.70
2018-07-20T08:00:00.989Z,100556.50
2018-07-20T08:02:30.123Z,100553.14
2018-07-20T08:04:59.403Z,100551.16
2018-07-20T08:07:30.007Z,100549.00
2018-07-20T08:09:59.072Z,100553.40
2018-07-20T08:12:27.782Z,100547.47
2018-07-20T08:14:58.229Z,100548.25
2018-07-20T08:17:26.940Z,100548.07
2018-07-20T08:19:55.698Z,100542.72
2018-07-20T08:22:24.559Z,100543.14
2018-07-20T08:24:53.769Z,100541.12
2018-07-20T08:27:22.594Z,100546.77
2018-07-20T08:29:51.302Z,100547.19
2018-07-20T08:32:20.013Z,100545.81
2018-07-20T08:34:50.647Z,100539.70
2018-07-20T08:37:18.188Z,100538.83
2018-07-20T08:39:47.304Z,100541.25
2018-07-20T08:42:16.075Z,100537.34
2018-07-20T08:44:45.253Z,100534.94
2018-07-20T08:47:13.890Z,100535.80
2018-07-20T08:49:43.543Z,100528.89
2018-07-20T08:52:20.518Z,100533.77
2018-07-20T08:54:50.874Z,100528.06
2018-07-20T08:57:21.571Z,100528.67
2018-07-20T08:59:50.676Z,100525.48
2018-07-20T09:02:19.374Z,100519.35
2018-07-20T09:04:48.299Z,100520.81
2018-07-20T09:07:16.975Z,100521.84
2018-07-20T09:09:45.647Z,100517.34
2018-07-20T09:12:14.840Z,100510.34
2018-07-20T09:14:43.714Z,100518.75
2018-07-20T09:17:14.123Z,100511.00
2018-07-20T09:19:43.384Z,100510.19
2018-07-20T09:23:07.005Z,100511.59
2018-07-20T09:25:35.653Z,100506.30
2018-07-20T09:28:47.067Z,100506.16
2018-07-20T09:34:25.364Z,100498.23
2018-07-20T09:36:54.022Z,100498.00
2018-07-20T09:39:22.646Z,100491.13
2018-07-20T09:41:51.294Z,100490.40
2018-07-20T09:44:20.707Z,100492.77
2018-07-20T09:46:49.302Z,100491.78
2018-07-20T09:49:18.058Z,100490.91
2018-07-20T09:51:46.930Z,100492.96
2018-07-20T09:54:18.327Z,100490.84
2018-07-20T09:56:47.850Z,100481.52
2018-07-20T09:59:16.705Z,100488.63
2018-07-20T10:01:46.464Z,100481.34
2018-07-20T10:04:15.087Z,100482.88
2018-07-20T10:06:44.412Z,100479.27
2018-07-20T10:09:13.034Z,100478.44
2018-07-20T10:11:42.078Z,100475.38
2018-07-20T10:14:10.889Z,100474.33
2018-07-20T10:16:39.691Z,100471.65
2018-07-20T10:19:08.365Z,100471.45
2018-07-20T10:21:37.344Z,100467.45
2018-07-20T10:24:06.000Z,100467.83
2018-07-20T10:26:34.974Z,100463.84
2018-07-20T10:29:03.979Z,100465.38
2018-07-20T10:31:33.068Z,100460.53
2018-07-20T10:34:01.886Z,100465.96
2018-07-20T10:36:30.608Z,100461.88
2018-07-20T10:38:59.412Z,100460.16
2018-07-20T10:41:28.213Z,100460.34
2018-07-20T10:43:57.235Z,100458.42
2018-07-20T10:46:25.868Z,100464.02
2018-07-20T10:48:54.525Z,100454.02
2018-07-20T10:51:23.463Z,100441.37
2018-07-20T10:53:52.962Z,100446.85
2018-07-20T10:56:22.065Z,100446.17
2018-07-20T10:58:51.657Z,100436.05
2018-07-20T11:01:23.205Z,100440.07
2018-07-20T11:03:52.948Z,100435.55
2018-07-20T11:06:21.719Z,100436.14
2018-07-20T11:08:50.579Z,100425.40
2018-07-20T11:11:19.387Z,100428.75
2018-07-20T11:13:49.151Z,100423.40
2018-07-20T11:16:18.068Z,100427.95
2018-07-20T11:18:46.990Z,100429.87
2018-07-20T11:21:20.537Z,100423.69
2018-07-20T11:23:50.538Z,100424.52
2018-07-20T11:26:23.341Z,100429.55
2018-07-20T11:28:52.929Z,100424.25
2018-07-20T11:31:22.783Z,100420.89
2018-07-20T11:33:53.125Z,100416.06
2018-07-20T11:36:22.344Z,100415.25
2018-07-20T11:38:51.464Z,100415.14
2018-07-20T11:41:20.701Z,100415.88
2018-07-20T11:43:50.266Z,100411.49
2018-07-20T11:46:19.859Z,100404.53
2018-07-20T11:48:50.743Z,100402.53
2018-07-20T11:51:19.965Z,100399.95
2018-07-20T11:53:50.370Z,100401.25
2018-07-20T11:56:19.781Z,100390.21
2018-07-20T11:58:49.250Z,100389.13
2018-07-20T12:01:18.844Z,100392.03
2018-07-20T12:03:52.286Z,100385.41
2018-07-20T12:06:25.900Z,100379.83
2018-07-20T12:08:55.308Z,100380.63
2018-07-20T12:11:24.728Z,100377.87
2018-07-20T12:13:54.133Z,100377.16
2018-07-20T12:16:23.027Z,100378.50
2018-07-20T12:18:52.171Z,100374.70
2018-07-20T12:21:21.792Z,100372.87
2018-07-20T12:23:50.594Z,100366.73
2018-07-20T12:26:22.372Z,100367.73
2018-07-20T12:28:50.996Z,100372.30
2018-07-20T12:31:19.669Z,100367.55
2018-07-20T12:33:48.491Z,100374.31
2018-07-20T12:36:17.467Z,100372.41
2018-07-20T12:38:46.219Z,100368.19
2018-07-20T12:41:15.495Z,100369.90
2018-07-20T12:43:44.140Z,100367.26
2018-07-20T12:46:13.069Z,100362.33
2018-07-20T12:48:41.797Z,100360.02
2018-07-20T12:51:10.628Z,100352.91
2018-07-20T12:53:39.252Z,100346.58
2018-07-20T12:56:07.950Z,100345.80
2018-07-20T12:58:36.983Z,100341.03
2018-07-20T13:01:05.944Z,100328.83
2018-07-20T13:03:34.724Z,100332.00
2018-07-20T13:06:03.826Z,100332.00
2018-07-20T13:08:32.470Z,100327.83
2018-07-20T13:11:04.257Z,100324.02
2018-07-20T13:13:33.217Z,100324.12
2018-07-20T13:16:02.241Z,100322.95
2018-07-20T13:18:31.322Z,100314.32
2018-07-20T13:21:00.247Z,100313.03
2018-07-20T13:23:28.912Z,100307.17
2018-07-20T13:26:00.130Z,100311.39
2018-07-20T13:28:29.346Z,100305.20
2018-07-20T13:30:58.576Z,100309.67
2018-07-20T13:33:27.653Z,100306.93
2018-07-20T13:35:56.730Z,100304.78
2018-07-20T13:38:25.669Z,100298.34
2018-07-20T13:40:54.581Z,100290.79
2018-07-20T13:43:23.438Z,100296.03
2018-07-20T13:45:52.410Z,100292.59
2018-07-20T13:48:24.031Z,100292.61
2018-07-20T13:50:52.931Z,100286.08
2018-07-20T13:53:21.774Z,100282.94
2018-07-20T13:55:51.658Z,100285.64
2018-07-20T13:58:20.330Z,100282.34
2018-07-20T14:00:48.956Z,100273.34
2018-07-20T14:03:17.813Z,100270.56
2018-07-20T14:05:46.449Z,100272.94
2018-07-20T14:08:15.116Z,100272.11
2018-07-20T14:10:43.776Z,100266.70
2018-07-20T14:13:12.498Z,100264.71
2018-07-20T14:15:41.132Z,100262.67
2018-07-20T14:18:09.991Z,100257.78
2018-07-20T14:20:38.463Z,100252.45
2018-07-20T14:23:07.395Z,100259.19
2018-07-20T14:25:36.460Z,100262.19
2018-07-20T14:28:07.271Z,100262.05
